sensor_id;sensor_type;location;lat;lon;timestamp;P1;durP1;ratioP1;P2;durP2;ratioP2
59492;SDS011;45497;43.996;22.876;2024-02-15T00:00:22;5.75;;;1.00;;
59492;SDS011;45497;43.996;22.876;2024-02-15T00:02:51;3.95;;;0.90;;
59492;SDS011;45497;43.996;22.876;2024-02-15T00:05:16;5.53;;;1.08;;
59492;SDS011;45497;43.996;22.876;2024-02-15T00:07:44;5.70;;;1.15;;
59492;SDS011;45497;43.996;22.876;2024-02-15T00:10:15;3.92;;;0.88;;
59492;SDS011;45497;43.996;22.876;2024-02-15T00:12:44;5.60;;;0.90;;
59492;SDS011;45497;43.996;22.876;2024-02-15T00:15:09;4.23;;;0.80;;
59492;SDS011;45497;43.996;22.876;2024-02-15T00:17:36;3.72;;;0.60;;
59492;SDS011;45497;43.996;22.876;2024-02-15T00:20:02;4.40;;;0.80;;
59492;SDS011;45497;43.996;22.876;2024-02-15T00:22:35;6.13;;;1.10;;
59492;SDS011;45497;43.996;22.876;2024-02-15T00:25:01;3.70;;;0.60;;
59492;SDS011;45497;43.996;22.876;2024-02-15T00:27:27;3.97;;;0.77;;
59492;SDS011;45497;43.996;22.876;2024-02-15T00:29:53;5.37;;;0.97;;
59492;SDS011;45497;43.996;22.876;2024-02-15T00:32:21;4.47;;;1.10;;
59492;SDS011;45497;43.996;22.876;2024-02-15T00:34:50;4.00;;;0.88;;
59492;SDS011;45497;43.996;22.876;2024-02-15T00:37:21;6.55;;;1.10;;
59492;SDS011;45497;43.996;22.876;2024-02-15T00:39:50;6.97;;;1.42;;
59492;SDS011;45497;43.996;22.876;2024-02-15T00:42:15;2.90;;;0.60;;
59492;SDS011;45497;43.996;22.876;2024-02-15T00:44:44;6.57;;;1.13;;
59492;SDS011;45497;43.996;22.876;2024-02-15T00:47:10;4.63;;;0.80;;
59492;SDS011;45497;43.996;22.876;2024-02-15T00:49:37;6.67;;;1.13;;
59492;SDS011;45497;43.996;22.876;2024-02-15T00:52:03;3.87;;;0.70;;
59492;SDS011;45497;43.996;22.876;2024-02-15T00:54:28;3.90;;;1.07;;
59492;SDS011;45497;43.996;22.876;2024-02-15T00:56:54;4.77;;;0.93;;
59492;SDS011;45497;43.996;22.876;2024-02-15T00:59:20;4.80;;;0.80;;
59492;SDS011;45497;43.996;22.876;2024-02-15T01:01:45;3.58;;;0.82;;
59492;SDS011;45497;43.996;22.876;2024-02-15T01:04:13;6.55;;;1.00;;
59492;SDS011;45497;43.996;22.876;2024-02-15T01:06:58;3.50;;;0.80;;
59492;SDS011;45497;43.996;22.876;2024-02-15T01:09:33;3.05;;;0.65;;
59492;SDS011;45497;43.996;22.876;2024-02-15T01:12:02;4.90;;;0.95;;
59492;SDS011;45497;43.996;22.876;2024-02-15T01:14:30;4.70;;;1.00;;
59492;SDS011;45497;43.996;22.876;2024-02-15T01:16:56;6.97;;;1.25;;
59492;SDS011;45497;43.996;22.876;2024-02-15T01:19:25;3.88;;;0.82;;
59492;SDS011;45497;43.996;22.876;2024-02-15T01:21:57;3.28;;;0.70;;
59492;SDS011;45497;43.996;22.876;2024-02-15T01:24:24;4.47;;;0.80;;
59492;SDS011;45497;43.996;22.876;2024-02-15T01:26:52;3.00;;;0.73;;
59492;SDS011;45497;43.996;22.876;2024-02-15T01:29:18;2.88;;;0.50;;
59492;SDS011;45497;43.996;22.876;2024-02-15T01:31:46;5.30;;;1.03;;
59492;SDS011;45497;43.996;22.876;2024-02-15T01:34:15;3.80;;;0.80;;
59492;SDS011;45497;43.996;22.876;2024-02-15T01:36:50;3.75;;;0.75;;
59492;SDS011;45497;43.996;22.876;2024-02-15T01:39:18;2.92;;;0.88;;
59492;SDS011;45497;43.996;22.876;2024-02-15T01:41:47;3.35;;;0.70;;
59492;SDS011;45497;43.996;22.876;2024-02-15T01:44:16;4.05;;;0.88;;
59492;SDS011;45497;43.996;22.876;2024-02-15T01:46:43;3.53;;;0.80;;
59492;SDS011;45497;43.996;22.876;2024-02-15T01:49:11;2.95;;;0.57;;
59492;SDS011;45497;43.996;22.876;2024-02-15T01:51:37;5.10;;;1.20;;
59492;SDS011;45497;43.996;22.876;2024-02-15T01:54:03;4.25;;;0.90;;
59492;SDS011;45497;43.996;22.876;2024-02-15T01:56:29;5.23;;;0.90;;
59492;SDS011;45497;43.996;22.876;2024-02-15T01:59:00;4.15;;;0.82;;
59492;SDS011;45497;43.996;22.876;2024-02-15T02:01:27;3.65;;;0.77;;
59492;SDS011;45497;43.996;22.876;2024-02-15T02:03:53;2.40;;;0.70;;
59492;SDS011;45497;43.996;22.876;2024-02-15T02:06:28;6.55;;;1.10;;
59492;SDS011;45497;43.996;22.876;2024-02-15T02:09:00;6.32;;;1.05;;
59492;SDS011;45497;43.996;22.876;2024-02-15T02:11:27;2.28;;;0.55;;
59492;SDS011;45497;43.996;22.876;2024-02-15T02:13:54;5.13;;;1.60;;
59492;SDS011;45497;43.996;22.876;2024-02-15T02:16:27;5.97;;;1.20;;
59492;SDS011;45497;43.996;22.876;2024-02-15T02:18:57;5.75;;;1.05;;
59492;SDS011;45497;43.996;22.876;2024-02-15T02:21:24;5.38;;;1.17;;
59492;SDS011;45497;43.996;22.876;2024-02-15T02:23:57;3.90;;;0.90;;
59492;SDS011;45497;43.996;22.876;2024-02-15T02:26:24;4.95;;;1.10;;
59492;SDS011;45497;43.996;22.876;2024-02-15T02:28:50;6.03;;;1.52;;
59492;SDS011;45497;43.996;22.876;2024-02-15T02:31:19;3.38;;;0.93;;
59492;SDS011;45497;43.996;22.876;2024-02-15T02:33:51;3.33;;;0.80;;
59492;SDS011;45497;43.996;22.876;2024-02-15T02:36:21;3.53;;;0.70;;
59492;SDS011;45497;43.996;22.876;2024-02-15T02:38:49;2.97;;;0.60;;
59492;SDS011;45497;43.996;22.876;2024-02-15T02:41:15;2.47;;;0.60;;
59492;SDS011;45497;43.996;22.876;2024-02-15T02:43:44;2.67;;;0.80;;
59492;SDS011;45497;43.996;22.876;2024-02-15T02:46:10;1.88;;;0.60;;
59492;SDS011;45497;43.996;22.876;2024-02-15T02:48:39;2.13;;;0.47;;
59492;SDS011;45497;43.996;22.876;2024-02-15T02:51:08;2.58;;;0.60;;
59492;SDS011;45497;43.996;22.876;2024-02-15T02:53:36;3.60;;;0.77;;
59492;SDS011;45497;43.996;22.876;2024-02-15T02:56:05;3.72;;;0.80;;
59492;SDS011;45497;43.996;22.876;2024-02-15T02:58:33;3.53;;;0.77;;
59492;SDS011;45497;43.996;22.876;2024-02-15T03:01:07;3.25;;;0.80;;
59492;SDS011;45497;43.996;22.876;2024-02-15T03:03:36;1.95;;;0.57;;
59492;SDS011;45497;43.996;22.876;2024-02-15T03:06:03;2.95;;;0.90;;
59492;SDS011;45497;43.996;22.876;2024-02-15T03:08:29;3.35;;;0.70;;
59492;SDS011;45497;43.996;22.876;2024-02-15T03:10:59;3.05;;;0.80;;
59492;SDS011;45497;43.996;22.876;2024-02-15T03:13:26;3.22;;;0.95;;
59492;SDS011;45497;43.996;22.876;2024-02-15T03:15:53;3.30;;;0.80;;
59492;SDS011;45497;43.996;22.876;2024-02-15T03:18:22;4.30;;;1.00;;
59492;SDS011;45497;43.996;22.876;2024-02-15T03:20:48;2.63;;;0.65;;
59492;SDS011;45497;43.996;22.876;2024-02-15T03:23:14;2.63;;;0.70;;
59492;SDS011;45497;43.996;22.876;2024-02-15T03:25:39;3.33;;;0.80;;
59492;SDS011;45497;43.996;22.876;2024-02-15T03:28:07;2.90;;;1.10;;
59492;SDS011;45497;43.996;22.876;2024-02-15T03:30:33;3.28;;;0.75;;
59492;SDS011;45497;43.996;22.876;2024-02-15T03:33:01;2.28;;;0.60;;
59492;SDS011;45497;43.996;22.876;2024-02-15T03:35:30;1.77;;;0.50;;
59492;SDS011;45497;43.996;22.876;2024-02-15T03:37:56;1.52;;;0.40;;
59492;SDS011;45497;43.996;22.876;2024-02-15T03:40:22;2.22;;;0.70;;
59492;SDS011;45497;43.996;22.876;2024-02-15T03:42:51;1.48;;;0.50;;
59492;SDS011;45497;43.996;22.876;2024-02-15T03:45:18;2.90;;;0.73;;
59492;SDS011;45497;43.996;22.876;2024-02-15T03:47:46;2.05;;;0.60;;
59492;SDS011;45497;43.996;22.876;2024-02-15T03:50:14;2.92;;;0.82;;
59492;SDS011;45497;43.996;22.876;2024-02-15T03:52:43;1.63;;;0.60;;
59492;SDS011;45497;43.996;22.876;2024-02-15T03:55:08;2.35;;;0.65;;
59492;SDS011;45497;43.996;22.876;2024-02-15T03:57:35;2.77;;;0.70;;
59492;SDS011;45497;43.996;22.876;2024-02-15T04:00:09;2.25;;;0.77;;
59492;SDS011;45497;43.996;22.876;2024-02-15T04:02:37;2.47;;;0.70;;
59492;SDS011;45497;43.996;22.876;2024-02-15T04:05:08;2.40;;;0.73;;
59492;SDS011;45497;43.996;22.876;2024-02-15T04:07:40;2.80;;;0.70;;
59492;SDS011;45497;43.996;22.876;2024-02-15T04:10:06;2.20;;;0.60;;
59492;SDS011;45497;43.996;22.876;2024-02-15T04:12:33;2.70;;;0.80;;
59492;SDS011;45497;43.996;22.876;2024-02-15T04:14:59;1.92;;;1.00;;
59492;SDS011;45497;43.996;22.876;2024-02-15T04:17:36;1.30;;;1.08;;
59492;SDS011;45497;43.996;22.876;2024-02-15T04:20:03;1.60;;;0.52;;
59492;SDS011;45497;43.996;22.876;2024-02-15T04:22:33;1.85;;;0.77;;
59492;SDS011;45497;43.996;22.876;2024-02-15T04:25:02;2.05;;;0.90;;
59492;SDS011;45497;43.996;22.876;2024-02-15T04:27:35;2.05;;;0.60;;
59492;SDS011;45497;43.996;22.876;2024-02-15T04:30:06;2.72;;;1.02;;
59492;SDS011;45497;43.996;22.876;2024-02-15T04:32:46;2.25;;;0.60;;
59492;SDS011;45497;43.996;22.876;2024-02-15T04:35:12;2.13;;;0.70;;
59492;SDS011;45497;43.996;22.876;2024-02-15T04:37:40;1.58;;;0.47;;
59492;SDS011;45497;43.996;22.876;2024-02-15T04:40:06;1.08;;;0.32;;
59492;SDS011;45497;43.996;22.876;2024-02-15T04:42:40;1.07;;;0.43;;
59492;SDS011;45497;43.996;22.876;2024-02-15T04:45:07;1.83;;;0.50;;
59492;SDS011;45497;43.996;22.876;2024-02-15T04:47:34;1.50;;;0.77;;
59492;SDS011;45497;43.996;22.876;2024-02-15T04:50:00;1.63;;;0.60;;
59492;SDS011;45497;43.996;22.876;2024-02-15T04:52:25;1.33;;;0.57;;
59492;SDS011;45497;43.996;22.876;2024-02-15T04:54:51;1.65;;;0.73;;
59492;SDS011;45497;43.996;22.876;2024-02-15T04:57:26;2.03;;;0.60;;
59492;SDS011;45497;43.996;22.876;2024-02-15T05:00:01;1.92;;;1.00;;
59492;SDS011;45497;43.996;22.876;2024-02-15T05:02:34;1.10;;;0.40;;
59492;SDS011;45497;43.996;22.876;2024-02-15T05:05:09;1.77;;;0.60;;
59492;SDS011;45497;43.996;22.876;2024-02-15T05:07:35;1.63;;;0.70;;
59492;SDS011;45497;43.996;22.876;2024-02-15T05:10:05;1.13;;;0.50;;
59492;SDS011;45497;43.996;22.876;2024-02-15T05:12:32;1.83;;;1.03;;
59492;SDS011;45497;43.996;22.876;2024-02-15T05:14:59;1.88;;;0.70;;
59492;SDS011;45497;43.996;22.876;2024-02-15T05:17:25;1.10;;;0.50;;
59492;SDS011;45497;43.996;22.876;2024-02-15T05:19:53;2.63;;;0.90;;
59492;SDS011;45497;43.996;22.876;2024-02-15T05:22:25;1.20;;;0.67;;
59492;SDS011;45497;43.996;22.876;2024-02-15T05:24:54;1.10;;;0.75;;
59492;SDS011;45497;43.996;22.876;2024-02-15T05:27:20;1.00;;;0.60;;
59492;SDS011;45497;43.996;22.876;2024-02-15T05:29:46;1.30;;;0.60;;
59492;SDS011;45497;43.996;22.876;2024-02-15T05:32:15;2.08;;;1.30;;
59492;SDS011;45497;43.996;22.876;2024-02-15T05:34:42;3.15;;;1.77;;
59492;SDS011;45497;43.996;22.876;2024-02-15T05:37:09;2.00;;;0.80;;
59492;SDS011;45497;43.996;22.876;2024-02-15T05:39:35;2.03;;;0.73;;
59492;SDS011;45497;43.996;22.876;2024-02-15T05:42:04;1.83;;;0.80;;
59492;SDS011;45497;43.996;22.876;2024-02-15T05:44:33;0.80;;;0.35;;
59492;SDS011;45497;43.996;22.876;2024-02-15T05:47:00;1.05;;;0.63;;
59492;SDS011;45497;43.996;22.876;2024-02-15T05:49:28;1.35;;;0.93;;
59492;SDS011;45497;43.996;22.876;2024-02-15T05:51:58;1.17;;;0.80;;
59492;SDS011;45497;43.996;22.876;2024-02-15T05:54:26;1.23;;;0.55;;
59492;SDS011;45497;43.996;22.876;2024-02-15T05:56:54;1.92;;;0.70;;
59492;SDS011;45497;43.996;22.876;2024-02-15T05:59:26;1.23;;;0.60;;
59492;SDS011;45497;43.996;22.876;2024-02-15T06:01:57;1.35;;;0.90;;
59492;SDS011;45497;43.996;22.876;2024-02-15T06:04:28;0.60;;;0.40;;
59492;SDS011;45497;43.996;22.876;2024-02-15T06:06:54;1.23;;;0.70;;
59492;SDS011;45497;43.996;22.876;2024-02-15T06:09:26;3.30;;;1.92;;
59492;SDS011;45497;43.996;22.876;2024-02-15T06:11:55;1.35;;;0.65;;
59492;SDS011;45497;43.996;22.876;2024-02-15T06:14:22;1.13;;;0.55;;
59492;SDS011;45497;43.996;22.876;2024-02-15T06:16:50;1.55;;;1.00;;
59492;SDS011;45497;43.996;22.876;2024-02-15T06:19:23;0.75;;;0.40;;
59492;SDS011;45497;43.996;22.876;2024-02-15T06:21:49;0.80;;;0.40;;
59492;SDS011;45497;43.996;22.876;2024-02-15T06:24:15;0.87;;;0.70;;
59492;SDS011;45497;43.996;22.876;2024-02-15T06:26:46;0.60;;;0.30;;
59492;SDS011;45497;43.996;22.876;2024-02-15T06:29:14;1.60;;;0.90;;
59492;SDS011;45497;43.996;22.876;2024-02-15T06:31:58;1.65;;;0.50;;
59492;SDS011;45497;43.996;22.876;2024-02-15T06:34:42;0.35;;;0.25;;
59492;SDS011;45497;43.996;22.876;2024-02-15T06:37:36;1.10;;;0.50;;
59492;SDS011;45497;43.996;22.876;2024-02-15T06:40:21;1.40;;;0.93;;
59492;SDS011;45497;43.996;22.876;2024-02-15T06:42:47;2.50;;;1.13;;
59492;SDS011;45497;43.996;22.876;2024-02-15T06:45:20;0.90;;;0.75;;
59492;SDS011;45497;43.996;22.876;2024-02-15T06:47:46;1.70;;;0.90;;
59492;SDS011;45497;43.996;22.876;2024-02-15T06:50:12;1.23;;;0.57;;
59492;SDS011;45497;43.996;22.876;2024-02-15T06:52:39;1.20;;;0.80;;
59492;SDS011;45497;43.996;22.876;2024-02-15T06:55:08;1.20;;;0.60;;
59492;SDS011;45497;43.996;22.876;2024-02-15T06:57:38;1.55;;;0.90;;
59492;SDS011;45497;43.996;22.876;2024-02-15T07:00:07;1.13;;;0.52;;
59492;SDS011;45497;43.996;22.876;2024-02-15T07:02:34;1.52;;;0.82;;
59492;SDS011;45497;43.996;22.876;2024-02-15T07:05:00;1.35;;;0.55;;
59492;SDS011;45497;43.996;22.876;2024-02-15T07:07:28;0.90;;;0.53;;
59492;SDS011;45497;43.996;22.876;2024-02-15T07:09:54;1.02;;;0.60;;
59492;SDS011;45497;43.996;22.876;2024-02-15T07:12:19;1.40;;;0.50;;
59492;SDS011;45497;43.996;22.876;2024-02-15T07:14:46;0.87;;;0.43;;
59492;SDS011;45497;43.996;22.876;2024-02-15T07:17:12;2.05;;;1.17;;
59492;SDS011;45497;43.996;22.876;2024-02-15T07:19:42;1.30;;;0.60;;
59492;SDS011;45497;43.996;22.876;2024-02-15T07:22:09;0.65;;;0.35;;
59492;SDS011;45497;43.996;22.876;2024-02-15T07:24:38;0.90;;;0.40;;
59492;SDS011;45497;43.996;22.876;2024-02-15T07:27:04;1.38;;;0.70;;
59492;SDS011;45497;43.996;22.876;2024-02-15T07:29:30;1.90;;;0.80;;
59492;SDS011;45497;43.996;22.876;2024-02-15T07:32:02;1.30;;;0.60;;
59492;SDS011;45497;43.996;22.876;2024-02-15T07:34:32;1.58;;;1.00;;
59492;SDS011;45497;43.996;22.876;2024-02-15T07:37:01;0.77;;;0.47;;
59492;SDS011;45497;43.996;22.876;2024-02-15T07:39:27;0.38;;;0.30;;
59492;SDS011;45497;43.996;22.876;2024-02-15T07:41:56;1.05;;;0.50;;
59492;SDS011;45497;43.996;22.876;2024-02-15T07:44:25;1.05;;;0.45;;
59492;SDS011;45497;43.996;22.876;2024-02-15T07:46:55;1.58;;;0.95;;
59492;SDS011;45497;43.996;22.876;2024-02-15T07:49:20;1.00;;;0.70;;
59492;SDS011;45497;43.996;22.876;2024-02-15T07:51:47;0.98;;;0.50;;
59492;SDS011;45497;43.996;22.876;2024-02-15T07:54:18;1.30;;;0.70;;
59492;SDS011;45497;43.996;22.876;2024-02-15T07:56:46;0.63;;;0.63;;
59492;SDS011;45497;43.996;22.876;2024-02-15T07:59:13;1.10;;;0.80;;
59492;SDS011;45497;43.996;22.876;2024-02-15T08:01:41;1.08;;;0.43;;
59492;SDS011;45497;43.996;22.876;2024-02-15T08:04:08;1.15;;;0.50;;
59492;SDS011;45497;43.996;22.876;2024-02-15T08:06:37;0.80;;;0.40;;
59492;SDS011;45497;43.996;22.876;2024-02-15T08:09:03;1.10;;;0.40;;
59492;SDS011;45497;43.996;22.876;2024-02-15T08:11:35;0.88;;;0.50;;
59492;SDS011;45497;43.996;22.876;2024-02-15T08:14:05;1.70;;;1.25;;
59492;SDS011;45497;43.996;22.876;2024-02-15T08:16:37;1.03;;;0.33;;
59492;SDS011;45497;43.996;22.876;2024-02-15T08:19:05;0.95;;;0.55;;
59492;SDS011;45497;43.996;22.876;2024-02-15T08:21:37;1.65;;;0.68;;
59492;SDS011;45497;43.996;22.876;2024-02-15T08:24:06;2.00;;;1.30;;
59492;SDS011;45497;43.996;22.876;2024-02-15T08:26:37;0.90;;;0.40;;
59492;SDS011;45497;43.996;22.876;2024-02-15T08:29:06;1.23;;;0.60;;
59492;SDS011;45497;43.996;22.876;2024-02-15T08:31:40;1.25;;;0.60;;
59492;SDS011;45497;43.996;22.876;2024-02-15T08:34:11;1.63;;;0.70;;
59492;SDS011;45497;43.996;22.876;2024-02-15T08:36:39;1.25;;;0.65;;
59492;SDS011;45497;43.996;22.876;2024-02-15T08:39:05;1.07;;;0.40;;
59492;SDS011;45497;43.996;22.876;2024-02-15T08:41:30;0.83;;;0.40;;
59492;SDS011;45497;43.996;22.876;2024-02-15T08:44:00;0.77;;;0.40;;
59492;SDS011;45497;43.996;22.876;2024-02-15T08:46:26;0.80;;;0.40;;
59492;SDS011;45497;43.996;22.876;2024-02-15T08:48:52;1.02;;;0.40;;
59492;SDS011;45497;43.996;22.876;2024-02-15T08:51:18;1.05;;;0.50;;
59492;SDS011;45497;43.996;22.876;2024-02-15T08:53:45;3.10;;;1.70;;
59492;SDS011;45497;43.996;22.876;2024-02-15T08:56:11;0.68;;;0.30;;
59492;SDS011;45497;43.996;22.876;2024-02-15T08:58:40;1.15;;;0.57;;
59492;SDS011;45497;43.996;22.876;2024-02-15T09:01:07;0.85;;;0.50;;
59492;SDS011;45497;43.996;22.876;2024-02-15T09:03:33;1.10;;;0.60;;
59492;SDS011;45497;43.996;22.876;2024-02-15T09:05:59;1.60;;;0.70;;
59492;SDS011;45497;43.996;22.876;2024-02-15T09:08:28;0.55;;;0.50;;
59492;SDS011;45497;43.996;22.876;2024-02-15T09:10:59;1.50;;;0.73;;
59492;SDS011;45497;43.996;22.876;2024-02-15T09:13:28;1.17;;;0.68;;
59492;SDS011;45497;43.996;22.876;2024-02-15T09:15:53;1.55;;;0.82;;
59492;SDS011;45497;43.996;22.876;2024-02-15T09:18:20;1.20;;;0.40;;
59492;SDS011;45497;43.996;22.876;2024-02-15T09:20:48;0.77;;;0.40;;
59492;SDS011;45497;43.996;22.876;2024-02-15T09:23:19;0.60;;;0.30;;
59492;SDS011;45497;43.996;22.876;2024-02-15T09:25:45;0.98;;;0.68;;
59492;SDS011;45497;43.996;22.876;2024-02-15T09:28:15;1.08;;;0.57;;
59492;SDS011;45497;43.996;22.876;2024-02-15T09:30:40;0.43;;;0.43;;
59492;SDS011;45497;43.996;22.876;2024-02-15T09:33:06;2.50;;;0.88;;
59492;SDS011;45497;43.996;22.876;2024-02-15T09:35:34;0.60;;;0.40;;
59492;SDS011;45497;43.996;22.876;2024-02-15T09:38:00;0.47;;;0.32;;
59492;SDS011;45497;43.996;22.876;2024-02-15T09:40:26;1.20;;;0.70;;
59492;SDS011;45497;43.996;22.876;2024-02-15T09:42:54;3.30;;;1.02;;
59492;SDS011;45497;43.996;22.876;2024-02-15T09:45:20;0.80;;;0.50;;
59492;SDS011;45497;43.996;22.876;2024-02-15T09:47:46;1.38;;;0.80;;
59492;SDS011;45497;43.996;22.876;2024-02-15T09:50:17;1.88;;;0.77;;
59492;SDS011;45497;43.996;22.876;2024-02-15T09:52:48;1.95;;;1.15;;
59492;SDS011;45497;43.996;22.876;2024-02-15T09:55:17;0.60;;;0.50;;
59492;SDS011;45497;43.996;22.876;2024-02-15T09:57:45;1.02;;;0.52;;
59492;SDS011;45497;43.996;22.876;2024-02-15T10:00:12;0.90;;;0.43;;
59492;SDS011;45497;43.996;22.876;2024-02-15T10:02:41;0.70;;;0.50;;
59492;SDS011;45497;43.996;22.876;2024-02-15T10:05:10;0.70;;;0.55;;
59492;SDS011;45497;43.996;22.876;2024-02-15T10:07:40;1.42;;;0.80;;
59492;SDS011;45497;43.996;22.876;2024-02-15T10:10:19;0.75;;;0.30;;
59492;SDS011;45497;43.996;22.876;2024-02-15T10:12:50;1.23;;;0.40;;
59492;SDS011;45497;43.996;22.876;2024-02-15T10:15:37;0.75;;;0.57;;
59492;SDS011;45497;43.996;22.876;2024-02-15T10:18:12;1.90;;;0.60;;
59492;SDS011;45497;43.996;22.876;2024-02-15T10:20:40;1.27;;;0.50;;
59492;SDS011;45497;43.996;22.876;2024-02-15T10:23:10;0.60;;;0.40;;
59492;SDS011;45497;43.996;22.876;2024-02-15T10:25:44;0.60;;;0.40;;
59492;SDS011;45497;43.996;22.876;2024-02-15T10:28:10;0.55;;;0.38;;
59492;SDS011;45497;43.996;22.876;2024-02-15T10:30:41;0.73;;;0.40;;
59492;SDS011;45497;43.996;22.876;2024-02-15T10:33:21;0.38;;;0.28;;
59492;SDS011;45497;43.996;22.876;2024-02-15T10:36:12;0.70;;;0.50;;
59492;SDS011;45497;43.996;22.876;2024-02-15T10:38:41;0.57;;;0.47;;
59492;SDS011;45497;43.996;22.876;2024-02-15T10:41:07;0.68;;;0.47;;
59492;SDS011;45497;43.996;22.876;2024-02-15T10:43:36;0.63;;;0.40;;
59492;SDS011;45497;43.996;22.876;2024-02-15T10:46:05;1.58;;;0.57;;
59492;SDS011;45497;43.996;22.876;2024-02-15T10:48:36;0.65;;;0.30;;
59492;SDS011;45497;43.996;22.876;2024-02-15T10:51:09;1.80;;;0.80;;
59492;SDS011;45497;43.996;22.876;2024-02-15T10:53:38;1.30;;;0.60;;
59492;SDS011;45497;43.996;22.876;2024-02-15T10:56:12;0.67;;;0.37;;
59492;SDS011;45497;43.996;22.876;2024-02-15T10:58:50;1.10;;;0.40;;
59492;SDS011;45497;43.996;22.876;2024-02-15T11:01:19;0.68;;;0.40;;
59492;SDS011;45497;43.996;22.876;2024-02-15T11:03:52;1.02;;;0.40;;
59492;SDS011;45497;43.996;22.876;2024-02-15T11:06:25;0.47;;;0.30;;
59492;SDS011;45497;43.996;22.876;2024-02-15T11:08:52;1.73;;;0.60;;
59492;SDS011;45497;43.996;22.876;2024-02-15T11:11:18;1.25;;;0.60;;
59492;SDS011;45497;43.996;22.876;2024-02-15T11:13:48;0.82;;;0.50;;
59492;SDS011;45497;43.996;22.876;2024-02-15T11:19:04;0.80;;;0.50;;
59492;SDS011;45497;43.996;22.876;2024-02-15T11:24:28;1.38;;;0.60;;
59492;SDS011;45497;43.996;22.876;2024-02-15T11:27:03;0.65;;;0.40;;
59492;SDS011;45497;43.996;22.876;2024-02-15T11:32:48;1.77;;;1.00;;
59492;SDS011;45497;43.996;22.876;2024-02-15T11:35:22;0.30;;;0.30;;
59492;SDS011;45497;43.996;22.876;2024-02-15T11:40:24;0.95;;;0.45;;
59492;SDS011;45497;43.996;22.876;2024-02-15T11:42:55;1.40;;;0.43;;
59492;SDS011;45497;43.996;22.876;2024-02-15T11:45:24;0.60;;;0.50;;
59492;SDS011;45497;43.996;22.876;2024-02-15T11:48:08;0.90;;;0.40;;
59492;SDS011;45497;43.996;22.876;2024-02-15T11:50:38;0.38;;;0.30;;
59492;SDS011;45497;43.996;22.876;2024-02-15T11:53:06;0.45;;;0.20;;
59492;SDS011;45497;43.996;22.876;2024-02-15T11:55:36;0.60;;;0.30;;
59492;SDS011;45497;43.996;22.876;2024-02-15T11:58:03;0.40;;;0.40;;
59492;SDS011;45497;43.996;22.876;2024-02-15T12:00:36;1.33;;;0.82;;
59492;SDS011;45497;43.996;22.876;2024-02-15T12:03:21;1.35;;;0.80;;
59492;SDS011;45497;43.996;22.876;2024-02-15T12:06:09;0.82;;;0.40;;
59492;SDS011;45497;43.996;22.876;2024-02-15T12:08:53;0.73;;;0.50;;
59492;SDS011;45497;43.996;22.876;2024-02-15T12:11:38;0.73;;;0.43;;
59492;SDS011;45497;43.996;22.876;2024-02-15T12:17:52;0.60;;;0.20;;
59492;SDS011;45497;43.996;22.876;2024-02-15T12:20:38;0.25;;;0.20;;
59492;SDS011;45497;43.996;22.876;2024-02-15T12:23:04;0.47;;;0.30;;
59492;SDS011;45497;43.996;22.876;2024-02-15T12:25:36;0.63;;;0.47;;
59492;SDS011;45497;43.996;22.876;2024-02-15T12:28:11;1.00;;;0.35;;
59492;SDS011;45497;43.996;22.876;2024-02-15T12:30:40;1.17;;;0.47;;
59492;SDS011;45497;43.996;22.876;2024-02-15T12:33:09;0.38;;;0.20;;
59492;SDS011;45497;43.996;22.876;2024-02-15T12:35:37;1.20;;;0.50;;
59492;SDS011;45497;43.996;22.876;2024-02-15T12:38:03;0.70;;;0.30;;
59492;SDS011;45497;43.996;22.876;2024-02-15T12:40:37;1.63;;;0.55;;
59492;SDS011;45497;43.996;22.876;2024-02-15T12:43:09;0.80;;;0.40;;
59492;SDS011;45497;43.996;22.876;2024-02-15T12:45:38;1.17;;;0.60;;
59492;SDS011;45497;43.996;22.876;2024-02-15T12:48:08;0.32;;;0.22;;
59492;SDS011;45497;43.996;22.876;2024-02-15T12:50:35;1.13;;;0.40;;
59492;SDS011;45497;43.996;22.876;2024-02-15T12:53:01;0.20;;;0.15;;
59492;SDS011;45497;43.996;22.876;2024-02-15T12:55:37;0.73;;;0.40;;
59492;SDS011;45497;43.996;22.876;2024-02-15T12:58:05;0.22;;;0.20;;
59492;SDS011;45497;43.996;22.876;2024-02-15T13:00:35;0.52;;;0.35;;
59492;SDS011;45497;43.996;22.876;2024-02-15T13:03:04;0.32;;;0.30;;
59492;SDS011;45497;43.996;22.876;2024-02-15T13:05:34;0.57;;;0.57;;
59492;SDS011;45497;43.996;22.876;2024-02-15T13:08:01;0.50;;;0.30;;
59492;SDS011;45497;43.996;22.876;2024-02-15T13:10:30;0.70;;;0.30;;
59492;SDS011;45497;43.996;22.876;2024-02-15T13:12:59;1.50;;;0.60;;
59492;SDS011;45497;43.996;22.876;2024-02-15T13:15:27;0.88;;;0.35;;
59492;SDS011;45497;43.996;22.876;2024-02-15T13:17:59;0.73;;;0.40;;
59492;SDS011;45497;43.996;22.876;2024-02-15T13:20:26;1.63;;;0.80;;
59492;SDS011;45497;43.996;22.876;2024-02-15T13:22:57;0.43;;;0.35;;
59492;SDS011;45497;43.996;22.876;2024-02-15T13:25:36;0.88;;;0.50;;
59492;SDS011;45497;43.996;22.876;2024-02-15T13:28:04;0.55;;;0.30;;
59492;SDS011;45497;43.996;22.876;2024-02-15T13:30:31;0.28;;;0.20;;
59492;SDS011;45497;43.996;22.876;2024-02-15T13:32:57;0.60;;;0.30;;
59492;SDS011;45497;43.996;22.876;2024-02-15T13:35:24;0.65;;;0.40;;
59492;SDS011;45497;43.996;22.876;2024-02-15T13:37:50;1.92;;;1.00;;
59492;SDS011;45497;43.996;22.876;2024-02-15T13:40:19;1.35;;;0.65;;
59492;SDS011;45497;43.996;22.876;2024-02-15T13:42:48;0.45;;;0.28;;
59492;SDS011;45497;43.996;22.876;2024-02-15T13:45:18;0.20;;;0.20;;
59492;SDS011;45497;43.996;22.876;2024-02-15T13:48:00;0.30;;;0.30;;
59492;SDS011;45497;43.996;22.876;2024-02-15T13:50:27;0.30;;;0.30;;
59492;SDS011;45497;43.996;22.876;2024-02-15T13:52:55;0.60;;;0.47;;
59492;SDS011;45497;43.996;22.876;2024-02-15T13:55:23;0.22;;;0.20;;
59492;SDS011;45497;43.996;22.876;2024-02-15T13:57:53;0.75;;;0.35;;
59492;SDS011;45497;43.996;22.876;2024-02-15T14:00:22;1.10;;;0.57;;
59492;SDS011;45497;43.996;22.876;2024-02-15T14:02:58;1.30;;;0.47;;
59492;SDS011;45497;43.996;22.876;2024-02-15T14:05:24;2.83;;;0.93;;
59492;SDS011;45497;43.996;22.876;2024-02-15T14:07:54;1.67;;;0.70;;
59492;SDS011;45497;43.996;22.876;2024-02-15T14:10:36;0.70;;;0.50;;
59492;SDS011;45497;43.996;22.876;2024-02-15T14:13:02;0.88;;;0.40;;
59492;SDS011;45497;43.996;22.876;2024-02-15T14:15:36;1.10;;;0.40;;
59492;SDS011;45497;43.996;22.876;2024-02-15T14:18:10;0.47;;;0.30;;
59492;SDS011;45497;43.996;22.876;2024-02-15T14:20:39;2.22;;;0.65;;
59492;SDS011;45497;43.996;22.876;2024-02-15T14:23:07;0.82;;;0.47;;
59492;SDS011;45497;43.996;22.876;2024-02-15T14:25:38;1.10;;;0.60;;
59492;SDS011;45497;43.996;22.876;2024-02-15T14:28:05;1.02;;;0.50;;
59492;SDS011;45497;43.996;22.876;2024-02-15T14:30:33;0.90;;;0.40;;
59492;SDS011;45497;43.996;22.876;2024-02-15T14:33:18;1.17;;;0.77;;
59492;SDS011;45497;43.996;22.876;2024-02-15T14:35:44;1.10;;;0.50;;
59492;SDS011;45497;43.996;22.876;2024-02-15T14:38:11;1.73;;;0.65;;
59492;SDS011;45497;43.996;22.876;2024-02-15T14:40:44;1.05;;;0.50;;
59492;SDS011;45497;43.996;22.876;2024-02-15T14:43:15;0.57;;;0.30;;
59492;SDS011;45497;43.996;22.876;2024-02-15T14:45:42;0.50;;;0.25;;
59492;SDS011;45497;43.996;22.876;2024-02-15T14:48:09;1.10;;;0.50;;
59492;SDS011;45497;43.996;22.876;2024-02-15T14:50:35;0.85;;;0.50;;
59492;SDS011;45497;43.996;22.876;2024-02-15T14:53:07;0.63;;;0.50;;
59492;SDS011;45497;43.996;22.876;2024-02-15T14:55:42;1.27;;;0.80;;
59492;SDS011;45497;43.996;22.876;2024-02-15T14:58:11;0.70;;;0.47;;
59492;SDS011;45497;43.996;22.876;2024-02-15T15:00:51;0.40;;;0.40;;